sensor_id;sensor_type;location;lat;lon;timestamp;temperature;humidity
71942;DHT22;59997;53.300;-6.260;2023-07-28T00:01:57;15.28;87.51
71942;DHT22;59997;53.300;-6.260;2023-07-28T00:04:23;15.23;87.56
71942;DHT22;59997;53.300;-6.260;2023-07-28T00:06:48;15.26;87.64
71942;DHT22;59997;53.300;-6.260;2023-07-28T00:09:14;15.21;87.71
71942;DHT22;59997;53.300;-6.260;2023-07-28T00:11:39;15.17;87.73
71942;DHT22;59997;53.300;-6.260;2023-07-28T00:14:05;15.08;87.62
71942;DHT22;59997;53.300;-6.260;2023-07-28T00:16:30;15.00;87.60
71942;DHT22;59997;53.300;-6.260;2023-07-28T00:18:56;14.93;87.52
71942;DHT22;59997;53.300;-6.260;2023-07-28T00:21:22;14.96;87.38
71942;DHT22;59997;53.300;-6.260;2023-07-28T00:23:47;14.95;87.02
71942;DHT22;59997;53.300;-6.260;2023-07-28T00:26:13;14.95;86.65
71942;DHT22;59997;53.300;-6.260;2023-07-28T00:28:38;14.92;86.32
71942;DHT22;59997;53.300;-6.260;2023-07-28T00:31:04;14.95;85.87
71942;DHT22;59997;53.300;-6.260;2023-07-28T00:33:29;14.90;85.91
71942;DHT22;59997;53.300;-6.260;2023-07-28T00:35:55;14.76;86.07
71942;DHT22;59997;53.300;-6.260;2023-07-28T00:38:20;14.72;85.94
71942;DHT22;59997;53.300;-6.260;2023-07-28T00:40:45;14.65;85.94
71942;DHT22;59997;53.300;-6.260;2023-07-28T00:43:11;14.58;85.96
71942;DHT22;59997;53.300;-6.260;2023-07-28T00:45:36;14.51;85.95
71942;DHT22;59997;53.300;-6.260;2023-07-28T00:48:02;14.55;86.09
71942;DHT22;59997;53.300;-6.260;2023-07-28T00:50:29;14.61;86.14
71942;DHT22;59997;53.300;-6.260;2023-07-28T00:52:55;14.58;86.37
71942;DHT22;59997;53.300;-6.260;2023-07-28T00:55:22;14.64;86.36
71942;DHT22;59997;53.300;-6.260;2023-07-28T00:57:47;14.54;86.42
71942;DHT22;59997;53.300;-6.260;2023-07-28T01:00:13;14.37;87.01
71942;DHT22;59997;53.300;-6.260;2023-07-28T01:02:39;14.30;87.34
71942;DHT22;59997;53.300;-6.260;2023-07-28T01:05:05;14.31;87.56
71942;DHT22;59997;53.300;-6.260;2023-07-28T01:08:00;14.34;87.54
71942;DHT22;59997;53.300;-6.260;2023-07-28T01:10:31;14.27;87.71
71942;DHT22;59997;53.300;-6.260;2023-07-28T01:12:58;14.23;87.91
71942;DHT22;59997;53.300;-6.260;2023-07-28T01:15:23;14.13;87.98
71942;DHT22;59997;53.300;-6.260;2023-07-28T01:17:50;14.14;88.12
71942;DHT22;59997;53.300;-6.260;2023-07-28T01:20:16;14.16;88.17
71942;DHT22;59997;53.300;-6.260;2023-07-28T01:23:05;14.16;88.14
71942;DHT22;59997;53.300;-6.260;2023-07-28T01:25:47;14.20;87.92
71942;DHT22;59997;53.300;-6.260;2023-07-28T01:28:15;14.27;87.83
71942;DHT22;59997;53.300;-6.260;2023-07-28T01:30:42;14.33;87.73
71942;DHT22;59997;53.300;-6.260;2023-07-28T01:33:08;14.36;87.69
71942;DHT22;59997;53.300;-6.260;2023-07-28T01:35:36;14.40;87.62
71942;DHT22;59997;53.300;-6.260;2023-07-28T01:38:03;14.47;87.64
71942;DHT22;59997;53.300;-6.260;2023-07-28T01:40:28;14.58;87.50
71942;DHT22;59997;53.300;-6.260;2023-07-28T01:42:54;14.61;87.40
71942;DHT22;59997;53.300;-6.260;2023-07-28T01:45:19;14.68;87.00
71942;DHT22;59997;53.300;-6.260;2023-07-28T01:47:45;14.65;87.08
71942;DHT22;59997;53.300;-6.260;2023-07-28T01:50:10;14.58;87.10
71942;DHT22;59997;53.300;-6.260;2023-07-28T01:52:35;14.60;87.07
71942;DHT22;59997;53.300;-6.260;2023-07-28T01:55:01;14.68;86.81
71942;DHT22;59997;53.300;-6.260;2023-07-28T01:57:27;14.61;86.88
71942;DHT22;59997;53.300;-6.260;2023-07-28T01:59:55;14.62;86.89
71942;DHT22;59997;53.300;-6.260;2023-07-28T02:02:21;14.62;86.93
71942;DHT22;59997;53.300;-6.260;2023-07-28T02:04:46;14.54;87.14
71942;DHT22;59997;53.300;-6.260;2023-07-28T02:07:12;14.48;87.13
71942;DHT22;59997;53.300;-6.260;2023-07-28T02:09:37;14.41;87.33
71942;DHT22;59997;53.300;-6.260;2023-07-28T02:12:03;14.45;87.20
71942;DHT22;59997;53.300;-6.260;2023-07-28T02:14:28;14.41;87.22
71942;DHT22;59997;53.300;-6.260;2023-07-28T02:16:53;14.40;87.37
71942;DHT22;59997;53.300;-6.260;2023-07-28T02:19:19;14.33;87.59
71942;DHT22;59997;53.300;-6.260;2023-07-28T02:21:44;14.21;87.85
71942;DHT22;59997;53.300;-6.260;2023-07-28T02:24:10;14.19;87.98
71942;DHT22;59997;53.300;-6.260;2023-07-28T02:26:35;14.19;88.05
71942;DHT22;59997;53.300;-6.260;2023-07-28T02:29:01;14.08;88.21
71942;DHT22;59997;53.300;-6.260;2023-07-28T02:31:26;14.01;88.18
71942;DHT22;59997;53.300;-6.260;2023-07-28T02:33:52;13.93;88.24
71942;DHT22;59997;53.300;-6.260;2023-07-28T02:36:17;13.81;88.42
71942;DHT22;59997;53.300;-6.260;2023-07-28T02:38:43;13.71;88.60
71942;DHT22;59997;53.300;-6.260;2023-07-28T02:41:08;13.68;88.73
71942;DHT22;59997;53.300;-6.260;2023-07-28T02:43:33;13.55;88.69
71942;DHT22;59997;53.300;-6.260;2023-07-28T02:46:00;13.44;88.82
71942;DHT22;59997;53.300;-6.260;2023-07-28T02:48:25;13.34;88.93
71942;DHT22;59997;53.300;-6.260;2023-07-28T02:50:51;13.26;88.95
71942;DHT22;59997;53.300;-6.260;2023-07-28T02:53:17;13.19;89.06
71942;DHT22;59997;53.300;-6.260;2023-07-28T02:55:43;13.06;88.98
71942;DHT22;59997;53.300;-6.260;2023-07-28T02:58:09;13.16;89.00
71942;DHT22;59997;53.300;-6.260;2023-07-28T03:00:42;13.19;88.91
71942;DHT22;59997;53.300;-6.260;2023-07-28T03:03:09;13.13;88.90
71942;DHT22;59997;53.300;-6.260;2023-07-28T03:05:38;13.02;88.97
71942;DHT22;59997;53.300;-6.260;2023-07-28T03:08:05;12.96;89.05
71942;DHT22;59997;53.300;-6.260;2023-07-28T03:10:31;12.92;89.15
71942;DHT22;59997;53.300;-6.260;2023-07-28T03:12:57;13.08;89.08
71942;DHT22;59997;53.300;-6.260;2023-07-28T03:15:23;13.03;89.08
71942;DHT22;59997;53.300;-6.260;2023-07-28T03:17:50;13.03;89.19
71942;DHT22;59997;53.300;-6.260;2023-07-28T03:20:16;12.96;89.18
71942;DHT22;59997;53.300;-6.260;2023-07-28T03:22:41;12.96;89.18
71942;DHT22;59997;53.300;-6.260;2023-07-28T03:25:07;12.93;89.24
71942;DHT22;59997;53.300;-6.260;2023-07-28T03:27:33;12.92;89.27
71942;DHT22;59997;53.300;-6.260;2023-07-28T03:29:58;12.81;89.32
71942;DHT22;59997;53.300;-6.260;2023-07-28T03:32:24;12.65;89.39
71942;DHT22;59997;53.300;-6.260;2023-07-28T03:34:49;12.49;89.55
71942;DHT22;59997;53.300;-6.260;2023-07-28T03:37:14;12.26;89.63
71942;DHT22;59997;53.300;-6.260;2023-07-28T03:39:40;12.21;89.70
71942;DHT22;59997;53.300;-6.260;2023-07-28T03:42:06;12.04;89.81
71942;DHT22;59997;53.300;-6.260;2023-07-28T03:44:31;12.02;89.88
71942;DHT22;59997;53.300;-6.260;2023-07-28T03:46:57;11.97;90.02
71942;DHT22;59997;53.300;-6.260;2023-07-28T03:49:23;11.84;90.16
71942;DHT22;59997;53.300;-6.260;2023-07-28T03:51:48;11.74;90.14
71942;DHT22;59997;53.300;-6.260;2023-07-28T03:54:14;11.74;90.26
71942;DHT22;59997;53.300;-6.260;2023-07-28T03:56:39;11.81;90.31
71942;DHT22;59997;53.300;-6.260;2023-07-28T03:59:04;11.78;90.39
71942;DHT22;59997;53.300;-6.260;2023-07-28T04:01:31;11.75;90.54
71942;DHT22;59997;53.300;-6.260;2023-07-28T04:03:56;11.66;90.55
71942;DHT22;59997;53.300;-6.260;2023-07-28T04:06:42;11.74;90.76
71942;DHT22;59997;53.300;-6.260;2023-07-28T04:09:08;11.74;90.78
71942;DHT22;59997;53.300;-6.260;2023-07-28T04:11:33;11.78;90.87
71942;DHT22;59997;53.300;-6.260;2023-07-28T04:13:59;11.70;90.91
71942;DHT22;59997;53.300;-6.260;2023-07-28T04:16:24;11.69;90.91
71942;DHT22;59997;53.300;-6.260;2023-07-28T04:18:50;11.71;91.01
71942;DHT22;59997;53.300;-6.260;2023-07-28T04:21:15;11.67;91.08
71942;DHT22;59997;53.300;-6.260;2023-07-28T04:23:41;11.67;91.18
71942;DHT22;59997;53.300;-6.260;2023-07-28T04:26:06;11.66;91.18
71942;DHT22;59997;53.300;-6.260;2023-07-28T04:28:31;11.66;91.20
71942;DHT22;59997;53.300;-6.260;2023-07-28T04:30:57;11.81;91.20
71942;DHT22;59997;53.300;-6.260;2023-07-28T04:33:23;11.99;91.24
71942;DHT22;59997;53.300;-6.260;2023-07-28T04:35:48;12.22;91.14
71942;DHT22;59997;53.300;-6.260;2023-07-28T04:38:14;12.29;91.04
71942;DHT22;59997;53.300;-6.260;2023-07-28T04:40:39;12.28;91.03
71942;DHT22;59997;53.300;-6.260;2023-07-28T04:43:05;12.32;90.97
71942;DHT22;59997;53.300;-6.260;2023-07-28T04:45:30;12.43;90.90
71942;DHT22;59997;53.300;-6.260;2023-07-28T04:47:56;12.53;90.85
71942;DHT22;59997;53.300;-6.260;2023-07-28T04:50:21;12.69;90.76
71942;DHT22;59997;53.300;-6.260;2023-07-28T04:52:46;12.98;90.52
71942;DHT22;59997;53.300;-6.260;2023-07-28T04:55:12;13.20;90.06
71942;DHT22;59997;53.300;-6.260;2023-07-28T04:57:37;13.30;89.83
71942;DHT22;59997;53.300;-6.260;2023-07-28T05:00:03;13.44;89.68
71942;DHT22;59997;53.300;-6.260;2023-07-28T05:02:30;13.55;89.58
71942;DHT22;59997;53.300;-6.260;2023-07-28T05:04:55;13.69;89.23
71942;DHT22;59997;53.300;-6.260;2023-07-28T05:07:21;13.78;89.01
71942;DHT22;59997;53.300;-6.260;2023-07-28T05:09:46;13.85;88.83
71942;DHT22;59997;53.300;-6.260;2023-07-28T05:12:12;13.98;88.45
71942;DHT22;59997;53.300;-6.260;2023-07-28T05:14:37;14.09;88.23
71942;DHT22;59997;53.300;-6.260;2023-07-28T05:17:03;14.17;87.77
71942;DHT22;59997;53.300;-6.260;2023-07-28T05:19:28;14.37;86.53
71942;DHT22;59997;53.300;-6.260;2023-07-28T05:21:54;14.44;86.46
71942;DHT22;59997;53.300;-6.260;2023-07-28T05:24:19;14.49;86.67
71942;DHT22;59997;53.300;-6.260;2023-07-28T05:26:45;14.44;86.45
71942;DHT22;59997;53.300;-6.260;2023-07-28T05:29:10;14.45;86.65
71942;DHT22;59997;53.300;-6.260;2023-07-28T05:31:35;14.41;86.60
71942;DHT22;59997;53.300;-6.260;2023-07-28T05:34:01;14.24;87.13
71942;DHT22;59997;53.300;-6.260;2023-07-28T05:36:26;14.03;88.05
71942;DHT22;59997;53.300;-6.260;2023-07-28T05:38:53;13.85;88.54
71942;DHT22;59997;53.300;-6.260;2023-07-28T05:41:22;13.77;88.97
71942;DHT22;59997;53.300;-6.260;2023-07-28T05:43:47;13.72;89.13
71942;DHT22;59997;53.300;-6.260;2023-07-28T05:46:13;13.68;89.19
71942;DHT22;59997;53.300;-6.260;2023-07-28T05:48:39;13.68;89.21
71942;DHT22;59997;53.300;-6.260;2023-07-28T05:51:04;13.68;89.20
71942;DHT22;59997;53.300;-6.260;2023-07-28T05:53:30;13.71;89.07
71942;DHT22;59997;53.300;-6.260;2023-07-28T05:55:55;13.74;88.97
71942;DHT22;59997;53.300;-6.260;2023-07-28T05:58:21;13.77;88.69
71942;DHT22;59997;53.300;-6.260;2023-07-28T06:00:46;13.81;88.57
71942;DHT22;59997;53.300;-6.260;2023-07-28T06:03:13;13.89;88.46
71942;DHT22;59997;53.300;-6.260;2023-07-28T06:05:39;14.02;88.51
71942;DHT22;59997;53.300;-6.260;2023-07-28T06:08:06;14.14;87.71
71942;DHT22;59997;53.300;-6.260;2023-07-28T06:10:31;14.26;87.44
71942;DHT22;59997;53.300;-6.260;2023-07-28T06:12:58;14.36;87.37
71942;DHT22;59997;53.300;-6.260;2023-07-28T06:15:23;14.40;86.66
71942;DHT22;59997;53.300;-6.260;2023-07-28T06:17:49;14.45;86.74
71942;DHT22;59997;53.300;-6.260;2023-07-28T06:20:14;14.48;86.06
71942;DHT22;59997;53.300;-6.260;2023-07-28T06:22:40;14.54;86.36
71942;DHT22;59997;53.300;-6.260;2023-07-28T06:25:06;14.58;85.80
71942;DHT22;59997;53.300;-6.260;2023-07-28T06:27:32;14.67;85.99
71942;DHT22;59997;53.300;-6.260;2023-07-28T06:29:58;14.73;85.07
71942;DHT22;59997;53.300;-6.260;2023-07-28T06:32:23;14.85;85.44
71942;DHT22;59997;53.300;-6.260;2023-07-28T06:34:49;14.93;85.54
71942;DHT22;59997;53.300;-6.260;2023-07-28T06:37:15;14.88;84.33
71942;DHT22;59997;53.300;-6.260;2023-07-28T06:39:41;14.99;83.63
71942;DHT22;59997;53.300;-6.260;2023-07-28T06:42:07;15.04;83.81
71942;DHT22;59997;53.300;-6.260;2023-07-28T06:44:32;14.99;82.77
71942;DHT22;59997;53.300;-6.260;2023-07-28T06:46:58;15.00;82.45
71942;DHT22;59997;53.300;-6.260;2023-07-28T06:49:23;15.08;82.96
71942;DHT22;59997;53.300;-6.260;2023-07-28T06:51:49;15.19;81.92
71942;DHT22;59997;53.300;-6.260;2023-07-28T06:54:14;15.42;82.33
71942;DHT22;59997;53.300;-6.260;2023-07-28T06:56:40;15.58;82.23
71942;DHT22;59997;53.300;-6.260;2023-07-28T06:59:07;15.69;80.27
71942;DHT22;59997;53.300;-6.260;2023-07-28T07:01:33;15.66;79.88
71942;DHT22;59997;53.300;-6.260;2023-07-28T07:03:59;15.72;79.20
71942;DHT22;59997;53.300;-6.260;2023-07-28T07:06:24;15.90;79.80
71942;DHT22;59997;53.300;-6.260;2023-07-28T07:08:50;16.00;79.31
71942;DHT22;59997;53.300;-6.260;2023-07-28T07:11:15;16.13;77.24
71942;DHT22;59997;53.300;-6.260;2023-07-28T07:13:41;16.34;77.99
71942;DHT22;59997;53.300;-6.260;2023-07-28T07:16:14;16.52;76.33
71942;DHT22;59997;53.300;-6.260;2023-07-28T07:18:40;16.93;76.66
71942;DHT22;59997;53.300;-6.260;2023-07-28T07:21:06;17.39;75.31
71942;DHT22;59997;53.300;-6.260;2023-07-28T07:23:31;18.02;74.34
71942;DHT22;59997;53.300;-6.260;2023-07-28T07:25:58;18.33;70.61
71942;DHT22;59997;53.300;-6.260;2023-07-28T07:28:23;18.64;70.89
71942;DHT22;59997;53.300;-6.260;2023-07-28T07:30:49;18.56;69.64
71942;DHT22;59997;53.300;-6.260;2023-07-28T07:33:14;18.40;69.45
71942;DHT22;59997;53.300;-6.260;2023-07-28T07:35:40;18.42;71.91
71942;DHT22;59997;53.300;-6.260;2023-07-28T07:38:05;18.19;71.26
71942;DHT22;59997;53.300;-6.260;2023-07-28T07:40:37;17.93;71.43
71942;DHT22;59997;53.300;-6.260;2023-07-28T07:43:02;17.79;71.25
71942;DHT22;59997;53.300;-6.260;2023-07-28T07:45:32;17.84;69.84
71942;DHT22;59997;53.300;-6.260;2023-07-28T07:48:00;17.96;69.93
71942;DHT22;59997;53.300;-6.260;2023-07-28T07:50:26;18.01;71.90
71942;DHT22;59997;53.300;-6.260;2023-07-28T07:52:51;18.00;69.05
71942;DHT22;59997;53.300;-6.260;2023-07-28T07:55:17;18.01;68.53
71942;DHT22;59997;53.300;-6.260;2023-07-28T07:57:42;18.05;68.97
71942;DHT22;59997;53.300;-6.260;2023-07-28T08:00:09;18.11;68.92
71942;DHT22;59997;53.300;-6.260;2023-07-28T08:02:35;18.05;67.15
71942;DHT22;59997;53.300;-6.260;2023-07-28T08:05:00;18.15;67.06
71942;DHT22;59997;53.300;-6.260;2023-07-28T08:07:26;18.21;67.69
71942;DHT22;59997;53.300;-6.260;2023-07-28T08:09:51;18.24;67.90
71942;DHT22;59997;53.300;-6.260;2023-07-28T08:12:17;18.14;67.29
71942;DHT22;59997;53.300;-6.260;2023-07-28T08:14:42;18.25;68.97
71942;DHT22;59997;53.300;-6.260;2023-07-28T08:17:09;18.29;68.35
71942;DHT22;59997;53.300;-6.260;2023-07-28T08:19:34;18.32;68.81
71942;DHT22;59997;53.300;-6.260;2023-07-28T08:22:01;18.25;68.24
71942;DHT22;59997;53.300;-6.260;2023-07-28T08:24:28;18.24;69.31
71942;DHT22;59997;53.300;-6.260;2023-07-28T08:26:54;18.12;69.48
71942;DHT22;59997;53.300;-6.260;2023-07-28T08:29:19;18.00;69.92
71942;DHT22;59997;53.300;-6.260;2023-07-28T08:31:45;17.94;71.01
71942;DHT22;59997;53.300;-6.260;2023-07-28T08:34:10;18.01;72.02
71942;DHT22;59997;53.300;-6.260;2023-07-28T08:36:36;17.79;70.63
71942;DHT22;59997;53.300;-6.260;2023-07-28T08:39:01;17.81;71.30
71942;DHT22;59997;53.300;-6.260;2023-07-28T08:41:27;17.79;70.82
71942;DHT22;59997;53.300;-6.260;2023-07-28T08:43:53;17.80;72.55
71942;DHT22;59997;53.300;-6.260;2023-07-28T08:46:20;17.72;71.43
71942;DHT22;59997;53.300;-6.260;2023-07-28T08:48:45;17.77;70.46
71942;DHT22;59997;53.300;-6.260;2023-07-28T08:51:12;18.02;71.53
71942;DHT22;59997;53.300;-6.260;2023-07-28T08:53:38;18.16;71.10
71942;DHT22;59997;53.300;-6.260;2023-07-28T08:56:04;18.26;71.88
71942;DHT22;59997;53.300;-6.260;2023-07-28T08:58:30;18.40;70.32
71942;DHT22;59997;53.300;-6.260;2023-07-28T09:00:55;18.36;70.25
71942;DHT22;59997;53.300;-6.260;2023-07-28T09:03:26;18.45;70.22
71942;DHT22;59997;53.300;-6.260;2023-07-28T09:05:59;18.42;70.60
71942;DHT22;59997;53.300;-6.260;2023-07-28T09:08:25;18.56;71.64
71942;DHT22;59997;53.300;-6.260;2023-07-28T09:10:50;18.45;70.94
71942;DHT22;59997;53.300;-6.260;2023-07-28T09:13:18;18.48;71.62
71942;DHT22;59997;53.300;-6.260;2023-07-28T09:15:44;18.56;71.16
71942;DHT22;59997;53.300;-6.260;2023-07-28T09:18:15;18.71;70.02
71942;DHT22;59997;53.300;-6.260;2023-07-28T09:20:42;18.48;70.12
71942;DHT22;59997;53.300;-6.260;2023-07-28T09:23:12;18.46;70.72
71942;DHT22;59997;53.300;-6.260;2023-07-28T09:25:38;18.61;70.79
71942;DHT22;59997;53.300;-6.260;2023-07-28T09:28:04;18.80;71.56
71942;DHT22;59997;53.300;-6.260;2023-07-28T09:31:03;18.85;70.83
71942;DHT22;59997;53.300;-6.260;2023-07-28T09:33:30;18.74;71.48
71942;DHT22;59997;53.300;-6.260;2023-07-28T09:35:56;18.91;72.83
71942;DHT22;59997;53.300;-6.260;2023-07-28T09:38:24;18.84;72.62
71942;DHT22;59997;53.300;-6.260;2023-07-28T09:40:53;18.81;72.17
71942;DHT22;59997;53.300;-6.260;2023-07-28T09:43:19;18.75;73.20
71942;DHT22;59997;53.300;-6.260;2023-07-28T09:45:45;18.50;71.51
71942;DHT22;59997;53.300;-6.260;2023-07-28T09:48:13;18.40;71.47
71942;DHT22;59997;53.300;-6.260;2023-07-28T09:50:40;18.53;71.81
71942;DHT22;59997;53.300;-6.260;2023-07-28T09:53:08;18.45;71.95
71942;DHT22;59997;53.300;-6.260;2023-07-28T09:55:35;18.77;72.90
71942;DHT22;59997;53.300;-6.260;2023-07-28T09:58:05;19.07;71.54
71942;DHT22;59997;53.300;-6.260;2023-07-28T10:00:33;19.16;70.99
71942;DHT22;59997;53.300;-6.260;2023-07-28T10:03:00;19.22;72.66
71942;DHT22;59997;53.300;-6.260;2023-07-28T10:05:26;19.16;71.60
71942;DHT22;59997;53.300;-6.260;2023-07-28T10:07:53;19.01;71.32
71942;DHT22;59997;53.300;-6.260;2023-07-28T10:10:19;19.14;72.00
71942;DHT22;59997;53.300;-6.260;2023-07-28T10:12:51;19.47;70.31
71942;DHT22;59997;53.300;-6.260;2023-07-28T10:15:19;19.61;68.20
71942;DHT22;59997;53.300;-6.260;2023-07-28T10:17:47;19.63;68.64
71942;DHT22;59997;53.300;-6.260;2023-07-28T10:20:48;19.70;71.44
71942;DHT22;59997;53.300;-6.260;2023-07-28T10:23:20;19.79;71.44
71942;DHT22;59997;53.300;-6.260;2023-07-28T10:25:47;19.77;71.00
71942;DHT22;59997;53.300;-6.260;2023-07-28T10:28:35;19.74;70.00
71942;DHT22;59997;53.300;-6.260;2023-07-28T10:31:07;19.71;69.27
71942;DHT22;59997;53.300;-6.260;2023-07-28T10:33:38;19.99;69.83
71942;DHT22;59997;53.300;-6.260;2023-07-28T10:36:21;20.22;69.59
71942;DHT22;59997;53.300;-6.260;2023-07-28T10:39:02;20.33;70.12
71942;DHT22;59997;53.300;-6.260;2023-07-28T10:41:37;21.05;67.12
71942;DHT22;59997;53.300;-6.260;2023-07-28T10:44:03;22.55;64.72
71942;DHT22;59997;53.300;-6.260;2023-07-28T10:46:28;23.30;62.29
71942;DHT22;59997;53.300;-6.260;2023-07-28T10:48:54;23.93;58.98
71942;DHT22;59997;53.300;-6.260;2023-07-28T10:51:24;24.42;53.74
71942;DHT22;59997;53.300;-6.260;2023-07-28T10:54:00;24.87;52.29
71942;DHT22;59997;53.300;-6.260;2023-07-28T10:56:28;23.89;56.61
71942;DHT22;59997;53.300;-6.260;2023-07-28T10:59:00;22.82;57.89
71942;DHT22;59997;53.300;-6.260;2023-07-28T11:01:37;22.59;60.73
71942;DHT22;59997;53.300;-6.260;2023-07-28T11:04:17;22.03;55.98
71942;DHT22;59997;53.300;-6.260;2023-07-28T11:06:47;23.37;59.97
71942;DHT22;59997;53.300;-6.260;2023-07-28T11:09:14;23.93;53.84
71942;DHT22;59997;53.300;-6.260;2023-07-28T11:11:40;23.26;55.17
71942;DHT22;59997;53.300;-6.260;2023-07-28T11:14:07;23.54;55.75
71942;DHT22;59997;53.300;-6.260;2023-07-28T11:16:34;24.44;53.64
71942;DHT22;59997;53.300;-6.260;2023-07-28T11:19:01;25.07;48.95
71942;DHT22;59997;53.300;-6.260;2023-07-28T11:21:28;24.49;51.69
71942;DHT22;59997;53.300;-6.260;2023-07-28T11:23:53;24.68;52.03
71942;DHT22;59997;53.300;-6.260;2023-07-28T11:26:20;24.65;51.06
71942;DHT22;59997;53.300;-6.260;2023-07-28T11:28:46;24.61;55.73
71942;DHT22;59997;53.300;-6.260;2023-07-28T11:31:12;25.56;52.14
71942;DHT22;59997;53.300;-6.260;2023-07-28T11:33:39;26.08;53.24
71942;DHT22;59997;53.300;-6.260;2023-07-28T11:36:05;25.96;46.57
71942;DHT22;59997;53.300;-6.260;2023-07-28T11:38:31;25.13;49.00
71942;DHT22;59997;53.300;-6.260;2023-07-28T11:40:58;24.27;52.46
71942;DHT22;59997;53.300;-6.260;2023-07-28T11:43:25;24.17;52.16
71942;DHT22;59997;53.300;-6.260;2023-07-28T11:45:51;23.47;53.87
71942;DHT22;59997;53.300;-6.260;2023-07-28T11:48:16;23.16;57.07
71942;DHT22;59997;53.300;-6.260;2023-07-28T11:50:43;23.31;56.67
71942;DHT22;59997;53.300;-6.260;2023-07-28T11:53:10;23.16;55.26
71942;DHT22;59997;53.300;-6.260;2023-07-28T11:55:37;23.10;57.40
71942;DHT22;59997;53.300;-6.260;2023-07-28T11:58:04;23.26;53.94
71942;DHT22;59997;53.300;-6.260;2023-07-28T12:00:39;23.40;56.59
71942;DHT22;59997;53.300;-6.260;2023-07-28T12:03:09;23.57;55.00
71942;DHT22;59997;53.300;-6.260;2023-07-28T12:05:37;23.66;55.61
71942;DHT22;59997;53.300;-6.260;2023-07-28T12:08:03;23.65;53.60
71942;DHT22;59997;53.300;-6.260;2023-07-28T12:10:29;23.20;55.55
71942;DHT22;59997;53.300;-6.260;2023-07-28T12:12:57;23.54;56.55
71942;DHT22;59997;53.300;-6.260;2023-07-28T12:18:11;23.48;56.72
71942;DHT22;59997;53.300;-6.260;2023-07-28T12:20:45;23.73;56.64
71942;DHT22;59997;53.300;-6.260;2023-07-28T12:23:16;24.47;55.52
71942;DHT22;59997;53.300;-6.260;2023-07-28T12:25:43;26.04;57.04
71942;DHT22;59997;53.300;-6.260;2023-07-28T12:28:10;25.77;52.74
71942;DHT22;59997;53.300;-6.260;2023-07-28T12:30:36;25.73;51.71
71942;DHT22;59997;53.300;-6.260;2023-07-28T12:33:02;25.59;50.92
71942;DHT22;59997;53.300;-6.260;2023-07-28T12:35:28;25.59;52.28
71942;DHT22;59997;53.300;-6.260;2023-07-28T12:37:58;24.49;54.26
71942;DHT22;59997;53.300;-6.260;2023-07-28T12:40:26;24.07;53.82
71942;DHT22;59997;53.300;-6.260;2023-07-28T12:42:52;23.76;58.35
71942;DHT22;59997;53.300;-6.260;2023-07-28T12:45:17;23.66;57.76
71942;DHT22;59997;53.300;-6.260;2023-07-28T12:47:43;23.59;58.00
71942;DHT22;59997;53.300;-6.260;2023-07-28T12:50:09;23.55;57.52
71942;DHT22;59997;53.300;-6.260;2023-07-28T12:52:35;24.65;52.61
71942;DHT22;59997;53.300;-6.260;2023-07-28T12:55:01;25.23;55.41
71942;DHT22;59997;53.300;-6.260;2023-07-28T12:57:27;25.86;50.86
71942;DHT22;59997;53.300;-6.260;2023-07-28T12:59:52;25.46;52.87
71942;DHT22;59997;53.300;-6.260;2023-07-28T13:02:18;24.61;58.17
71942;DHT22;59997;53.300;-6.260;2023-07-28T13:04:43;23.85;57.57
71942;DHT22;59997;53.300;-6.260;2023-07-28T13:07:09;23.69;56.82
71942;DHT22;59997;53.300;-6.260;2023-07-28T13:09:34;23.54;57.04
71942;DHT22;59997;53.300;-6.260;2023-07-28T13:12:00;23.33;60.39
71942;DHT22;59997;53.300;-6.260;2023-07-28T13:14:26;23.02;59.65
71942;DHT22;59997;53.300;-6.260;2023-07-28T13:16:51;22.89;61.30
71942;DHT22;59997;53.300;-6.260;2023-07-28T13:19:17;23.09;59.08
71942;DHT22;59997;53.300;-6.260;2023-07-28T13:21:42;23.76;56.42
71942;DHT22;59997;53.300;-6.260;2023-07-28T13:24:08;24.41;56.80
71942;DHT22;59997;53.300;-6.260;2023-07-28T13:26:33;24.75;54.98
71942;DHT22;59997;53.300;-6.260;2023-07-28T13:28:59;24.68;54.61
71942;DHT22;59997;53.300;-6.260;2023-07-28T13:31:27;24.38;56.67
71942;DHT22;59997;53.300;-6.260;2023-07-28T13:33:52;24.48;55.53
71942;DHT22;59997;53.300;-6.260;2023-07-28T13:36:18;24.64;55.47
71942;DHT22;59997;53.300;-6.260;2023-07-28T13:38:43;23.97;56.71
71942;DHT22;59997;53.300;-6.260;2023-07-28T13:41:09;23.65;57.86
71942;DHT22;59997;53.300;-6.260;2023-07-28T13:43:34;22.81;58.27
71942;DHT22;59997;53.300;-6.260;2023-07-28T13:46:02;22.69;61.38
71942;DHT22;59997;53.300;-6.260;2023-07-28T13:48:28;23.45;58.31
71942;DHT22;59997;53.300;-6.260;2023-07-28T13:50:53;24.24;58.59
71942;DHT22;59997;53.300;-6.260;2023-07-28T13:53:19;24.54;55.90
71942;DHT22;59997;53.300;-6.260;2023-07-28T13:55:44;24.52;58.31
71942;DHT22;59997;53.300;-6.260;2023-07-28T13:58:10;24.73;56.31
71942;DHT22;59997;53.300;-6.260;2023-07-28T14:00:35;24.52;55.45
71942;DHT22;59997;53.300;-6.260;2023-07-28T14:03:01;24.41;55.61
71942;DHT22;59997;53.300;-6.260;2023-07-28T14:05:27;24.17;57.64
71942;DHT22;59997;53.300;-6.260;2023-07-28T14:07:52;24.23;59.06
71942;DHT22;59997;53.300;-6.260;2023-07-28T14:10:18;24.00;57.41
71942;DHT22;59997;53.300;-6.260;2023-07-28T14:12:43;23.27;58.01
71942;DHT22;59997;53.300;-6.260;2023-07-28T14:15:09;22.58;61.73
71942;DHT22;59997;53.300;-6.260;2023-07-28T14:17:35;22.06;59.90
71942;DHT22;59997;53.300;-6.260;2023-07-28T14:20:00;21.36;63.30
71942;DHT22;59997;53.300;-6.260;2023-07-28T14:22:26;21.34;64.29
71942;DHT22;59997;53.300;-6.260;2023-07-28T14:24:51;21.81;63.69
71942;DHT22;59997;53.300;-6.260;2023-07-28T14:27:17;21.95;62.45
71942;DHT22;59997;53.300;-6.260;2023-07-28T14:29:42;22.52;63.15
71942;DHT22;59997;53.300;-6.260;2023-07-28T14:32:08;22.76;62.11
71942;DHT22;59997;53.300;-6.260;2023-07-28T14:34:33;22.58;60.00
71942;DHT22;59997;53.300;-6.260;2023-07-28T14:37:06;22.37;61.35
71942;DHT22;59997;53.300;-6.260;2023-07-28T14:39:31;22.88;62.78
71942;DHT22;59997;53.300;-6.260;2023-07-28T14:41:57;23.40;58.86
71942;DHT22;59997;53.300;-6.260;2023-07-28T14:44:23;22.96;59.04
71942;DHT22;59997;53.300;-6.260;2023-07-28T14:46:48;22.67;60.23
71942;DHT22;59997;53.300;-6.260;2023-07-28T14:49:14;22.54;59.38
71942;DHT22;59997;53.300;-6.260;2023-07-28T14:51:39;22.98;61.83
71942;DHT22;59997;53.300;-6.260;2023-07-28T14:54:05;23.33;59.95
71942;DHT22;59997;53.300;-6.260;2023-07-28T14:56:30;23.16;61.96
71942;DHT22;59997;53.300;-6.260;2023-07-28T14:58:56;22.32;60.85
71942;DHT22;59997;53.300;-6.260;2023-07-28T15:01:23;22.00;61.83
71942;DHT22;59997;53.300;-6.260;2023-07-28T15:03:49;21.54;64.46
71942;DHT22;59997;53.300;-6.260;2023-07-28T15:06:14;21.93;63.97
71942;DHT22;59997;53.300;-6.260;2023-07-28T15:08:39;22.50;64.33
71942;DHT22;59997;53.300;-6.260;2023-07-28T15:11:06;22.14;61.52
71942;DHT22;59997;53.300;-6.260;2023-07-28T15:13:31;21.83;61.82
71942;DHT22;59997;53.300;-6.260;2023-07-28T15:15:57;21.78;62.30